Time;durP1;ratioP1;P1;durP2;ratioP2;P2;SDS_P1;SDS_P2;PMS_P1;PMS_P2;Temp;Humidity;BMP_temperature;BMP_pressure;BME280_temperature;BME280_humidity;BME280_pressure;Samples;Min_cycle;Max_cycle;Signal;HPM_P1;HPM_P2
2023/03/21 00:02:05;;;;;;;28.02;19.70;;;26.00;99.90;;;;;;5034042;28;20029;-70
2023/03/21 00:04:32;;;;;;;39.60;19.42;;;26.00;99.90;;;;;;5034831;28;20021;-68
2023/03/21 00:06:58;;;;;;;29.90;18.60;;;25.90;99.90;;;;;;5034695;28;20474;-71
2023/03/21 00:09:25;;;;;;;32.90;18.92;;;26.00;99.90;;;;;;5021510;28;20033;-70
2023/03/21 00:11:52;;;;;;;43.03;19.13;;;26.00;99.90;;;;;;5035016;28;20032;-70
2023/03/21 00:14:19;;;;;;;32.13;18.77;;;25.90;99.90;;;;;;5034951;28;20037;-70
2023/03/21 00:16:49;;;;;;;35.25;19.92;;;25.90;99.90;;;;;;5034818;28;20049;-71
2023/03/21 00:19:19;;;;;;;30.42;18.65;;;25.90;99.90;;;;;;5035022;28;20080;-71
2023/03/21 00:21:46;;;;;;;30.30;18.88;;;26.00;99.90;;;;;;5034598;28;20029;-70
2023/03/21 00:24:12;;;;;;;26.33;17.08;;;26.00;99.90;;;;;;5034984;28;20014;-75
2023/03/21 00:26:39;;;;;;;25.27;16.52;;;26.00;99.90;;;;;;5034788;28;20057;-70
2023/03/21 00:29:06;;;;;;;26.20;15.52;;;26.10;99.90;;;;;;5034784;28;20430;-69
2023/03/21 00:31:32;;;;;;;38.20;21.33;;;26.10;99.90;;;;;;5034765;28;20021;-70
2023/03/21 00:34:00;;;;;;;36.22;18.23;;;26.20;99.90;;;;;;5034694;28;20033;-69
2023/03/21 00:36:27;;;;;;;21.95;15.10;;;26.20;99.90;;;;;;5034790;28;20029;-69
2023/03/21 00:38:54;;;;;;;28.45;15.95;;;26.30;99.90;;;;;;5034736;28;20091;-72
2023/03/21 00:41:21;;;;;;;24.27;15.48;;;26.40;99.90;;;;;;5034492;28;20059;-70
2023/03/21 00:43:50;;;;;;;27.27;14.75;;;26.40;99.90;;;;;;5034346;28;20104;-70
2023/03/21 00:46:17;;;;;;;21.63;14.75;;;26.40;99.90;;;;;;5033685;28;20041;-68
2023/03/21 00:48:43;;;;;;;24.33;14.70;;;26.50;99.90;;;;;;5034520;28;20017;-69
2023/03/21 00:51:24;;;;;;;25.88;14.40;;;26.50;99.90;;;;;;5034241;28;20111;-68
2023/03/21 00:53:55;;;;;;;24.63;14.90;;;26.60;99.90;;;;;;5034790;28;20057;-73
2023/03/21 00:56:22;;;;;;;25.83;14.48;;;26.70;99.90;;;;;;5034925;28;20112;-70
2023/03/21 00:58:48;;;;;;;23.27;13.57;;;26.70;99.90;;;;;;5031014;28;20021;-73
2023/03/21 01:01:15;;;;;;;28.50;13.68;;;26.80;99.90;;;;;;5034896;28;20025;-74
2023/03/21 01:03:41;;;;;;;22.35;12.75;;;26.80;99.90;;;;;;5034455;28;20040;-73
2023/03/21 01:06:12;;;;;;;19.77;13.48;;;26.80;99.90;;;;;;5034720;28;20414;-75
2023/03/21 01:08:42;;;;;;;21.20;15.57;;;26.80;99.90;;;;;;5035061;28;20045;-72
2023/03/21 01:11:12;;;;;;;35.40;23.85;;;26.90;99.90;;;;;;5034479;28;20474;-75
2023/03/21 01:13:43;;;;;;;23.98;14.02;;;26.90;99.90;;;;;;5034873;28;20033;-72
2023/03/21 01:16:10;;;;;;;23.65;14.90;;;27.00;99.90;;;;;;5034436;28;20048;-70
2023/03/21 01:18:38;;;;;;;21.73;13.73;;;27.10;99.90;;;;;;5034421;28;20125;-72
2023/03/21 01:21:09;;;;;;;40.42;26.02;;;27.10;99.90;;;;;;5034417;28;20490;-72
2023/03/21 01:23:36;;;;;;;33.45;24.30;;;27.20;99.90;;;;;;5034457;28;20155;-74
2023/03/21 01:26:04;;;;;;;212.00;150.75;;;27.30;99.90;;;;;;5034321;28;20017;-73
2023/03/21 01:28:31;;;;;;;26.38;14.63;;;27.40;99.90;;;;;;5034386;28;20156;-69
2023/03/21 01:31:01;;;;;;;23.65;14.73;;;27.40;99.90;;;;;;5034426;28;20032;-70
2023/03/21 01:33:28;;;;;;;19.35;12.80;;;27.40;99.90;;;;;;5034042;28;20444;-71
2023/03/21 01:35:55;;;;;;;19.65;12.07;;;27.40;99.90;;;;;;5033737;28;20429;-70
2023/03/21 01:38:22;;;;;;;23.90;12.10;;;27.30;99.90;;;;;;5015707;28;20390;-68
2023/03/21 01:40:50;;;;;;;19.00;11.88;;;27.30;99.90;;;;;;5033260;28;20044;-67
2023/03/21 01:43:21;;;;;;;22.90;11.98;;;27.40;99.90;;;;;;5033446;28;20013;-70
2023/03/21 01:45:53;;;;;;;18.95;11.63;;;27.50;99.90;;;;;;5033298;28;20013;-70
2023/03/21 01:48:21;;;;;;;23.83;11.88;;;27.50;99.90;;;;;;5033634;28;20100;-70
2023/03/21 01:50:50;;;;;;;17.05;10.48;;;27.50;99.90;;;;;;5033436;28;20032;-72
2023/03/21 01:53:20;;;;;;;18.50;9.57;;;27.50;99.90;;;;;;5033292;28;20076;-70
2023/03/21 01:55:48;;;;;;;18.25;10.68;;;27.40;99.90;;;;;;5033189;28;20025;-70
2023/03/21 01:58:17;;;;;;;15.15;11.20;;;27.50;99.90;;;;;;5015662;28;20029;-70
2023/03/21 02:00:46;;;;;;;17.33;10.35;;;27.60;99.90;;;;;;5033038;28;20022;-70
2023/03/21 02:03:15;;;;;;;19.83;10.20;;;27.60;99.90;;;;;;5027923;28;20478;-69
2023/03/21 02:05:51;;;;;;;19.20;11.27;;;27.70;99.90;;;;;;5022568;28;20018;-69
2023/03/21 02:08:17;;;;;;;22.38;10.25;;;27.70;99.90;;;;;;5013835;28;20014;-69
2023/03/21 02:10:48;;;;;;;23.35;9.02;;;27.70;99.90;;;;;;5013976;28;20320;-69
2023/03/21 02:13:15;;;;;;;17.27;10.10;;;27.70;99.90;;;;;;5013468;28;20060;-70
2023/03/21 02:15:49;;;;;;;13.85;9.38;;;27.70;99.90;;;;;;5013844;28;20053;-69
2023/03/21 02:18:25;;;;;;;19.55;10.60;;;27.70;99.90;;;;;;5013626;28;20022;-69
2023/03/21 02:21:03;;;;;;;18.15;10.52;;;27.80;99.90;;;;;;5013530;28;20060;-69
2023/03/21 02:23:33;;;;;;;19.48;11.15;;;27.90;99.90;;;;;;5013498;28;20022;-69
2023/03/21 02:26:04;;;;;;;26.80;11.32;;;28.10;99.90;;;;;;5013447;28;20446;-70
2023/03/21 02:28:42;;;;;;;15.82;8.98;;;28.20;99.90;;;;;;5013555;28;20434;-70
2023/03/21 02:31:14;;;;;;;21.45;10.60;;;28.20;99.90;;;;;;5023759;28;20064;-70
2023/03/21 02:33:43;;;;;;;16.30;9.90;;;28.20;99.90;;;;;;5013519;28;20030;-71
2023/03/21 02:36:10;;;;;;;17.25;9.73;;;28.20;99.90;;;;;;5013312;28;20490;-71
2023/03/21 02:38:39;;;;;;;15.40;9.68;;;28.30;99.90;;;;;;5013041;28;20069;-69
2023/03/21 02:41:22;;;;;;;14.38;10.00;;;28.20;99.90;;;;;;5013222;28;20025;-70
2023/03/21 02:43:58;;;;;;;16.80;9.80;;;28.30;99.90;;;;;;5013041;28;20483;-70
2023/03/21 02:46:33;;;;;;;39.38;28.40;;;28.30;99.90;;;;;;5013303;28;20025;-70
2023/03/21 02:49:11;;;;;;;18.85;11.65;;;28.40;99.90;;;;;;5013261;28;20018;-69
2023/03/21 02:51:40;;;;;;;14.73;10.50;;;28.50;99.90;;;;;;5013168;28;20471;-69
2023/03/21 02:54:13;;;;;;;16.60;10.02;;;28.60;99.90;;;;;;5013113;28;20112;-69
2023/03/21 02:56:41;;;;;;;14.48;9.25;;;28.60;99.90;;;;;;5013422;28;20079;-70
2023/03/21 02:59:09;;;;;;;19.33;10.50;;;28.60;99.90;;;;;;5030477;28;20032;-69
2023/03/21 03:01:36;;;;;;;19.50;12.85;;;28.60;99.90;;;;;;5031546;28;20221;-69
2023/03/21 03:04:03;;;;;;;18.58;13.18;;;28.70;99.90;;;;;;5029292;28;20022;-70
2023/03/21 03:06:46;;;;;;;24.10;14.65;;;28.70;99.90;;;;;;5031801;28;20067;-67
2023/03/21 03:09:22;;;;;;;18.92;14.13;;;28.70;99.90;;;;;;5034015;28;20048;-68
2023/03/21 03:11:56;;;;;;;19.85;15.13;;;28.80;99.90;;;;;;5017105;28;20049;-67
2023/03/21 03:14:28;;;;;;;21.13;14.35;;;28.80;99.90;;;;;;5016928;28;20052;-69
2023/03/21 03:16:59;;;;;;;25.23;15.38;;;28.90;99.90;;;;;;5016788;28;20125;-66
2023/03/21 03:19:29;;;;;;;23.13;13.35;;;29.00;99.90;;;;;;5027171;28;20034;-67
2023/03/21 03:21:58;;;;;;;23.25;14.32;;;29.20;99.90;;;;;;5016683;28;20530;-69
2023/03/21 03:24:28;;;;;;;24.45;14.68;;;29.20;99.90;;;;;;5016592;28;20025;-70
2023/03/21 03:27:00;;;;;;;24.80;15.43;;;29.20;99.90;;;;;;5016210;28;20022;-71
2023/03/21 03:29:29;;;;;;;27.35;19.15;;;29.20;99.90;;;;;;5016998;28;20018;-69
2023/03/21 03:32:06;;;;;;;31.45;21.85;;;29.30;99.90;;;;;;5017583;28;20479;-68
2023/03/21 03:34:38;;;;;;;32.33;22.85;;;29.30;99.90;;;;;;5022233;28;20025;-71
2023/03/21 03:37:09;;;;;;;37.15;24.10;;;29.30;99.90;;;;;;5021653;28;20116;-72
2023/03/21 03:39:43;;;;;;;34.00;23.73;;;29.40;99.90;;;;;;5034943;28;20487;-71
2023/03/21 03:42:23;;;;;;;38.25;24.98;;;29.40;99.90;;;;;;5034304;28;20021;-71
2023/03/21 03:44:50;;;;;;;39.28;25.88;;;29.50;99.90;;;;;;5032631;28;20025;-72
2023/03/21 03:47:28;;;;;;;33.05;23.67;;;29.50;99.90;;;;;;5035286;28;20022;-72
2023/03/21 03:50:05;;;;;;;33.67;23.75;;;29.60;99.90;;;;;;5035455;28;20017;-69
2023/03/21 03:52:36;;;;;;;31.45;22.42;;;29.70;99.90;;;;;;5035594;28;20029;-70
2023/03/21 03:55:04;;;;;;;32.25;22.42;;;29.70;99.90;;;;;;5035357;28;20064;-72
2023/03/21 03:57:30;;;;;;;31.50;22.67;;;29.80;99.90;;;;;;5035079;28;20032;-73
2023/03/21 03:59:57;;;;;;;24.70;20.60;;;29.80;99.90;;;;;;5028720;28;20013;-72
2023/03/21 04:02:24;;;;;;;29.35;22.30;;;29.80;99.90;;;;;;5020345;28;20390;-66
2023/03/21 04:04:52;;;;;;;27.25;21.17;;;29.90;99.90;;;;;;5015101;28;20153;-70
2023/03/21 04:07:21;;;;;;;29.55;23.35;;;29.90;99.90;;;;;;5015294;28;20014;-70
2023/03/21 04:09:47;;;;;;;35.25;26.33;;;29.90;99.90;;;;;;5015402;28;20089;-72
2023/03/21 04:12:14;;;;;;;38.65;25.88;;;30.00;99.90;;;;;;5018284;28;20510;-71
2023/03/21 04:14:40;;;;;;;30.10;23.55;;;30.00;99.90;;;;;;5033718;28;20037;-73
2023/03/21 04:17:07;;;;;;;32.55;26.38;;;30.10;99.90;;;;;;5033370;28;20045;-71
2023/03/21 04:19:34;;;;;;;30.15;25.33;;;30.20;99.90;;;;;;5033460;28;20525;-70
2023/03/21 04:22:01;;;;;;;38.47;28.85;;;30.20;99.90;;;;;;5033317;28;20489;-68
2023/03/21 04:24:32;;;;;;;32.30;27.42;;;30.20;99.90;;;;;;5033279;28;20028;-68
2023/03/21 04:26:59;;;;;;;32.85;25.65;;;30.20;99.90;;;;;;5033589;28;20028;-70
2023/03/21 04:29:28;;;;;;;29.45;25.17;;;30.20;99.90;;;;;;5031953;28;20025;-71
2023/03/21 04:31:55;;;;;;;30.85;25.65;;;30.20;99.90;;;;;;5033973;28;20496;-68
2023/03/21 04:34:22;;;;;;;34.33;26.65;;;30.30;99.90;;;;;;5034340;28;20030;-70
2023/03/21 04:36:52;;;;;;;31.17;24.83;;;30.40;99.90;;;;;;5034688;28;20079;-70
2023/03/21 04:39:20;;;;;;;22.33;17.27;;;30.50;99.90;;;;;;5034820;28;20036;-78
2023/03/21 04:41:48;;;;;;;26.10;17.85;;;30.50;99.90;;;;;;5034485;28;20037;-73
2023/03/21 04:44:16;;;;;;;22.38;15.63;;;30.50;99.90;;;;;;5034484;28;20025;-71
2023/03/21 04:46:43;;;;;;;20.45;16.20;;;30.50;99.90;;;;;;5034672;28;20029;-72
2023/03/21 04:49:10;;;;;;;20.90;16.45;;;30.50;99.90;;;;;;5035133;28;20463;-72
2023/03/21 04:51:37;;;;;;;18.60;13.30;;;30.60;99.90;;;;;;5034944;28;20032;-71
2023/03/21 04:54:04;;;;;;;16.05;13.10;;;30.60;99.90;;;;;;5015590;28;20041;-71
2023/03/21 04:56:31;;;;;;;20.58;13.77;;;30.60;99.90;;;;;;5015526;28;20026;-69
2023/03/21 04:58:59;;;;;;;14.77;12.45;;;30.60;99.90;;;;;;5026366;28;20038;-75
2023/03/21 05:01:29;;;;;;;20.38;14.60;;;30.80;99.90;;;;;;5018908;28;20022;-71
2023/03/21 05:03:58;;;;;;;20.77;15.73;;;30.90;99.90;;;;;;5034612;28;20109;-66
2023/03/21 05:06:26;;;;;;;51.92;33.13;;;31.00;99.90;;;;;;5034173;28;20101;-68
2023/03/21 05:08:55;;;;;;;29.08;22.02;;;31.00;99.90;;;;;;5034201;28;20034;-70
2023/03/21 05:11:22;;;;;;;18.85;12.52;;;30.90;99.90;;;;;;5032799;28;20030;-66
2023/03/21 05:13:48;;;;;;;13.77;10.40;;;30.90;99.90;;;;;;5033111;28;20025;-67
2023/03/21 05:16:15;;;;;;;60.33;42.67;;;31.00;99.90;;;;;;5015856;28;20434;-64
2023/03/21 05:18:41;;;;;;;24.52;20.23;;;31.00;99.90;;;;;;5034174;28;20054;-68
2023/03/21 05:21:09;;;;;;;22.40;12.82;;;30.90;99.90;;;;;;5034098;28;20052;-69
2023/03/21 05:23:40;;;;;;;12.40;9.38;;;31.00;99.90;;;;;;5033617;28;20387;-66
2023/03/21 05:26:08;;;;;;;14.20;10.65;;;31.00;99.90;;;;;;5014244;28;20033;-69
2023/03/21 05:28:35;;;;;;;14.48;10.50;;;31.00;99.90;;;;;;5013909;28;20037;-69
2023/03/21 05:31:03;;;;;;;13.55;8.98;;;31.10;99.90;;;;;;5013554;28;20538;-68
2023/03/21 05:33:30;;;;;;;18.05;9.32;;;31.10;99.90;;;;;;5030214;28;20032;-67
2023/03/21 05:35:57;;;;;;;11.90;8.32;;;31.20;99.90;;;;;;5031434;28;20129;-71
2023/03/21 05:38:23;;;;;;;15.98;9.35;;;31.20;99.90;;;;;;5028305;28;20025;-70
2023/03/21 05:40:51;;;;;;;21.13;10.77;;;31.40;99.90;;;;;;5032057;28;20059;-65
2023/03/21 05:43:17;;;;;;;14.32;8.10;;;31.40;99.90;;;;;;5030188;28;20028;-65
2023/03/21 05:45:44;;;;;;;9.85;8.02;;;31.40;99.90;;;;;;5030050;28;20022;-68
2023/03/21 05:48:11;;;;;;;13.75;8.82;;;31.50;99.90;;;;;;5031760;28;20029;-67
2023/03/21 05:50:38;;;;;;;12.00;7.75;;;31.50;99.90;;;;;;5031984;28;20017;-65
2023/03/21 05:53:05;;;;;;;14.25;7.40;;;31.50;99.90;;;;;;5030626;28;20501;-65
2023/03/21 05:55:32;;;;;;;11.68;7.70;;;31.50;99.90;;;;;;5031970;28;20046;-69
2023/03/21 05:57:58;;;;;;;21.95;13.50;;;31.50;99.90;;;;;;5031976;28;20017;-68
2023/03/21 06:00:25;;;;;;;11.90;8.25;;;31.50;99.90;;;;;;5029806;28;20034;-70
2023/03/21 06:02:52;;;;;;;11.88;8.32;;;31.60;99.90;;;;;;5029697;28;20291;-72
2023/03/21 06:05:18;;;;;;;19.15;11.82;;;31.60;99.90;;;;;;5032670;28;20014;-70
2023/03/21 06:07:45;;;;;;;16.88;13.18;;;31.70;99.90;;;;;;5029819;28;20379;-71
2023/03/21 06:10:12;;;;;;;17.05;12.13;;;31.80;99.90;;;;;;5033118;28;20157;-69
2023/03/21 06:12:39;;;;;;;11.10;8.18;;;31.80;99.90;;;;;;5030255;28;20026;-67
2023/03/21 06:15:07;;;;;;;10.13;7.55;;;31.80;99.90;;;;;;5030108;28;20045;-67
2023/03/21 06:17:34;;;;;;;14.98;7.85;;;31.90;99.90;;;;;;5029348;28;20025;-70
2023/03/21 06:20:03;;;;;;;11.77;7.45;;;31.90;99.90;;;;;;5032481;28;20025;-69
2023/03/21 06:22:30;;;;;;;9.38;6.88;;;32.00;99.90;;;;;;5032596;28;20029;-67
2023/03/21 06:25:02;;;;;;;11.45;6.57;;;32.00;99.90;;;;;;5032708;28;20044;-69
2023/03/21 06:27:28;;;;;;;16.58;6.70;;;32.10;99.90;;;;;;5032412;28;20044;-67
2023/03/21 06:29:56;;;;;;;9.05;5.32;;;32.10;99.90;;;;;;5030936;28;20025;-67
2023/03/21 06:32:23;;;;;;;9.57;6.20;;;32.20;99.90;;;;;;5026883;28;20098;-70
2023/03/21 06:34:50;;;;;;;10.23;5.72;;;32.30;99.90;;;;;;5030778;28;20021;-69
2023/03/21 06:37:17;;;;;;;15.05;7.18;;;32.30;99.90;;;;;;5030312;28;20388;-68
2023/03/21 06:39:45;;;;;;;8.55;6.35;;;32.30;99.90;;;;;;5029720;28;20422;-69
2023/03/21 06:42:13;;;;;;;12.68;6.80;;;32.40;99.90;;;;;;5030665;28;20152;-69
2023/03/21 06:44:39;;;;;;;17.50;14.25;;;32.40;99.90;;;;;;5034250;28;20509;-69
2023/03/21 06:47:06;;;;;;;17.75;13.52;;;32.50;99.90;;;;;;5030375;28;20022;-67
2023/03/21 06:49:33;;;;;;;12.52;8.63;;;32.50;99.90;;;;;;5049716;28;20036;-67
2023/03/21 06:52:00;;;;;;;11.45;7.18;;;32.50;99.90;;;;;;5056821;28;20504;-68
2023/03/21 06:54:26;;;;;;;9.95;6.60;;;32.50;99.90;;;;;;5057033;28;20649;-68
2023/03/21 06:56:53;;;;;;;8.68;6.25;;;32.50;99.90;;;;;;5056470;28;20021;-69
2023/03/21 06:59:20;;;;;;;10.25;6.25;;;32.50;99.90;;;;;;5056334;28;20017;-69
2023/03/21 07:01:47;;;;;;;10.50;6.28;;;32.50;99.90;;;;;;5056173;28;20032;-69
2023/03/21 07:04:14;;;;;;;8.82;5.57;;;32.50;99.90;;;;;;5056263;28;20040;-70
2023/03/21 07:06:41;;;;;;;12.07;6.53;;;32.50;99.90;;;;;;5056007;28;20040;-69
2023/03/21 07:09:07;;;;;;;9.60;6.70;;;32.60;99.90;;;;;;5055762;28;20382;-70
2023/03/21 07:11:36;;;;;;;10.02;5.93;;;32.60;99.90;;;;;;5055933;28;20498;-69
2023/03/21 07:14:03;;;;;;;9.93;6.47;;;32.60;99.90;;;;;;5056138;28;20104;-71
2023/03/21 07:16:29;;;;;;;9.02;5.60;;;32.70;99.90;;;;;;5055686;28;20041;-71
2023/03/21 07:18:56;;;;;;;8.40;6.38;;;32.70;99.90;;;;;;5055987;28;20025;-70
2023/03/21 07:21:23;;;;;;;7.43;5.88;;;32.70;99.90;;;;;;5055855;28;20021;-71
2023/03/21 07:23:49;;;;;;;8.95;6.18;;;32.80;99.90;;;;;;5031485;28;20075;-71
2023/03/21 07:26:17;;;;;;;8.25;5.38;;;32.90;99.90;;;;;;5016363;28;20048;-71
2023/03/21 07:28:44;;;;;;;6.53;5.10;;;32.90;99.90;;;;;;5016464;28;20028;-71
2023/03/21 07:31:14;;;;;;;9.90;6.28;;;33.00;99.90;;;;;;5016312;28;20026;-69
2023/03/21 07:33:40;;;;;;;8.98;5.72;;;33.20;99.90;;;;;;5034254;28;20030;-69
2023/03/21 07:36:11;;;;;;;8.60;6.20;;;33.20;99.90;;;;;;5035960;28;20053;-69
2023/03/21 07:38:39;;;;;;;12.48;5.72;;;33.20;99.90;;;;;;5036359;28;20025;-69
2023/03/21 07:41:06;;;;;;;7.30;5.72;;;33.30;99.90;;;;;;5035821;28;20033;-70
2023/03/21 07:43:33;;;;;;;12.20;6.68;;;33.40;99.90;;;;;;5035698;28;20018;-69
2023/03/21 07:46:00;;;;;;;7.55;6.07;;;33.40;99.90;;;;;;5035582;28;20075;-70
2023/03/21 07:48:27;;;;;;;10.82;6.70;;;33.40;99.90;;;;;;5035561;28;20025;-70
2023/03/21 07:50:54;;;;;;;8.13;6.43;;;33.40;99.90;;;;;;5035551;28;20108;-70
2023/03/21 07:53:21;;;;;;;9.10;7.72;;;33.40;99.90;;;;;;5035331;28;20389;-69
2023/03/21 07:55:51;;;;;;;11.35;8.10;;;33.40;99.90;;;;;;5035427;28;20026;-69
2023/03/21 07:58:17;;;;;;;12.48;8.93;;;33.30;99.90;;;;;;5035253;28;20029;-68
2023/03/21 08:00:44;;;;;;;13.98;8.02;;;33.30;99.90;;;;;;5035483;28;20034;-69
2023/03/21 08:03:10;;;;;;;13.60;11.82;;;33.20;99.90;;;;;;5029046;28;20021;-69
2023/03/21 08:05:38;;;;;;;41.63;25.33;;;33.30;99.90;;;;;;5016067;28;20018;-70
2023/03/21 08:08:05;;;;;;;27.75;17.38;;;33.40;99.90;;;;;;5015441;28;20026;-68
2023/03/21 08:10:32;;;;;;;18.90;15.25;;;33.40;99.90;;;;;;5015516;28;20129;-69
2023/03/21 08:12:59;;;;;;;21.42;14.48;;;33.40;99.90;;;;;;5015221;28;20030;-69
2023/03/21 08:15:25;;;;;;;33.85;16.55;;;33.50;99.90;;;;;;5014995;28;20472;-69
2023/03/21 08:17:52;;;;;;;26.75;17.83;;;33.60;99.90;;;;;;5015251;28;20076;-69
2023/03/21 08:20:20;;;;;;;28.77;17.55;;;33.60;99.90;;;;;;5015096;28;20050;-69
2023/03/21 08:22:48;;;;;;;16.90;13.20;;;33.60;99.90;;;;;;5014979;28;20020;-69
2023/03/21 08:25:20;;;;;;;16.40;11.82;;;33.60;99.90;;;;;;5015113;28;20105;-69
2023/03/21 08:27:48;;;;;;;24.52;15.13;;;33.60;99.90;;;;;;5014903;28;20029;-67
2023/03/21 08:30:19;;;;;;;17.13;11.90;;;33.70;99.90;;;;;;5015060;28;20526;-68
2023/03/21 08:32:46;;;;;;;15.73;10.82;;;33.70;99.90;;;;;;5020784;28;20029;-68
2023/03/21 08:35:15;;;;;;;12.15;9.55;;;33.70;99.90;;;;;;5019881;28;20029;-68
2023/03/21 08:37:42;;;;;;;12.82;9.32;;;33.70;99.90;;;;;;5014821;28;20037;-68
2023/03/21 08:40:14;;;;;;;15.98;11.13;;;33.80;99.90;;;;;;5014824;28;20057;-69
2023/03/21 08:42:40;;;;;;;;;;;33.90;99.90;;;;;;5015028;28;20097;-69
2023/03/21 08:45:08;;;;;;;13.50;9.23;;;33.90;99.90;;;;;;5015008;28;19905;-68
2023/03/21 08:47:35;;;;;;;28.02;13.95;;;33.80;99.10;;;;;;5022812;28;20056;-67
2023/03/21 08:50:02;;;;;;;17.02;9.35;;;33.80;99.30;;;;;;5040197;28;20043;-69
2023/03/21 08:52:29;;;;;;;19.10;10.02;;;33.80;99.30;;;;;;5034516;28;20014;-71
2023/03/21 08:54:55;;;;;;;17.08;9.07;;;33.90;99.60;;;;;;5034311;28;20024;-66
2023/03/21 08:57:22;;;;;;;12.98;7.00;;;33.80;99.80;;;;;;5033692;28;20105;-69
2023/03/21 08:59:49;;;;;;;13.07;7.00;;;33.80;99.80;;;;;;5034220;28;20025;-68
2023/03/21 09:02:16;;;;;;;16.92;14.00;;;33.80;99.70;;;;;;5035114;28;20479;-65
2023/03/21 09:04:43;;;;;;;9.90;7.70;;;33.80;99.30;;;;;;5032904;28;20116;-71
2023/03/21 09:07:13;;;;;;;10.98;7.07;;;33.90;99.50;;;;;;5033048;28;20084;-71
2023/03/21 09:09:41;;;;;;;13.10;6.82;;;33.90;99.40;;;;;;5033395;28;20022;-72
2023/03/21 09:12:08;;;;;;;13.25;10.00;;;33.80;97.80;;;;;;5032939;28;20356;-67
2023/03/21 09:14:34;;;;;;;13.52;6.70;;;33.70;98.60;;;;;;5031166;28;20025;-68
2023/03/21 09:17:01;;;;;;;12.10;5.70;;;33.70;97.40;;;;;;5033644;28;20149;-66
2023/03/21 09:19:29;;;;;;;8.43;5.35;;;33.70;99.00;;;;;;5033252;28;20013;-66
2023/03/21 09:21:56;;;;;;;13.05;5.68;;;33.80;98.80;;;;;;5031118;28;20032;-67
2023/03/21 09:24:23;;;;;;;7.63;5.40;;;33.80;98.80;;;;;;5033016;28;20021;-68
2023/03/21 09:26:50;;;;;;;13.43;9.38;;;33.80;99.00;;;;;;5033415;28;20480;-72
2023/03/21 09:29:20;;;;;;;8.73;6.40;;;33.80;99.00;;;;;;5034117;28;20056;-68
2023/03/21 09:31:46;;;;;;;59.58;51.38;;;33.80;99.30;;;;;;5030564;28;20321;-68
2023/03/21 09:34:14;;;;;;;17.38;11.32;;;33.90;99.40;;;;;;5033157;28;20470;-68
2023/03/21 09:36:42;;;;;;;8.30;6.28;;;33.80;98.90;;;;;;5033502;28;20029;-66
2023/03/21 09:39:10;;;;;;;13.52;6.22;;;33.70;98.70;;;;;;5033459;28;20101;-68
2023/03/21 09:41:42;;;;;;;13.85;8.02;;;33.60;99.50;;;;;;5033160;28;20025;-67
2023/03/21 09:44:14;;;;;;;;;;;33.60;99.90;;;;;;5030963;28;20018;-66
2023/03/21 09:46:50;;;;;;;13.48;7.47;;;33.70;99.90;;;;;;5032100;28;20095;-65
2023/03/21 09:49:24;;;;;;;15.13;8.32;;;33.70;99.90;;;;;;5030361;28;20034;-66
2023/03/21 09:51:54;;;;;;;10.15;5.75;;;33.70;99.90;;;;;;5029619;28;20056;-65
2023/03/21 09:54:26;;;;;;;10.02;6.15;;;33.60;98.80;;;;;;5028026;28;20036;-66
2023/03/21 09:56:59;;;;;;;8.63;6.32;;;33.60;97.60;;;;;;5030566;28;20026;-68
2023/03/21 09:59:35;;;;;;;57.08;42.85;;;33.60;98.20;;;;;;5031687;28;20021;-68
2023/03/21 10:02:03;;;;;;;28.40;20.27;;;33.60;97.40;;;;;;5014018;28;20390;-67
2023/03/21 10:04:30;;;;;;;23.85;14.00;;;33.60;97.60;;;;;;5032985;28;20092;-66
2023/03/21 10:07:01;;;;;;;18.83;11.38;;;33.60;97.20;;;;;;5032831;28;20022;-66
2023/03/21 10:09:31;;;;;;;10.43;7.32;;;33.60;97.10;;;;;;5030760;28;20028;-68
2023/03/21 10:12:00;;;;;;;17.85;9.48;;;33.70;96.90;;;;;;5033384;28;20017;-66
2023/03/21 10:14:30;;;;;;;21.63;10.05;;;33.70;96.80;;;;;;5032306;28;20425;-68
2023/03/21 10:17:22;;;;;;;19.35;13.73;;;33.70;96.60;;;;;;5032088;28;20084;-68
2023/03/21 10:20:10;;;;;;;22.55;12.38;;;33.60;97.90;;;;;;5015992;28;20565;-69
2023/03/21 10:22:38;;;;;;;21.15;12.80;;;33.60;98.20;;;;;;5024376;28;20107;-67
2023/03/21 10:25:06;;;;;;;20.95;12.65;;;33.60;98.80;;;;;;5035475;28;20025;-66
2023/03/21 10:27:35;;;;;;;23.27;13.80;;;33.60;99.20;;;;;;5034510;28;20018;-66
2023/03/21 10:30:06;;;;;;;26.98;18.17;;;33.30;99.90;;;;;;5030854;28;20052;-66
2023/03/21 10:32:34;;;;;;;28.65;16.00;;;33.00;99.90;;;;;;5033891;28;20029;-64
2023/03/21 10:35:05;;;;;;;26.48;13.02;;;32.70;99.90;;;;;;5036000;28;20030;-67
2023/03/21 10:37:31;;;;;;;37.95;15.38;;;32.40;99.90;;;;;;5023921;28;20485;-66
2023/03/21 10:39:58;;;;;;;27.40;17.40;;;32.20;99.90;;;;;;5033526;28;20033;-68
2023/03/21 10:42:30;;;;;;;23.73;13.57;;;32.00;99.90;;;;;;5017138;28;20108;-67
2023/03/21 10:44:56;;;;;;;;;;;31.80;99.90;;;;;;5017360;28;20131;-67
2023/03/21 10:47:25;;;;;;;18.23;11.60;;;31.70;99.90;;;;;;5016638;28;19913;-67
2023/03/21 10:49:52;;;;;;;27.38;15.90;;;31.50;99.90;;;;;;5016595;28;20387;-66
2023/03/21 10:52:21;;;;;;;26.60;16.23;;;31.40;99.90;;;;;;5022050;28;20103;-66
2023/03/21 10:54:49;;;;;;;27.13;15.02;;;31.40;99.90;;;;;;5036188;28;20032;-67
2023/03/21 10:57:21;;;;;;;25.73;17.23;;;31.40;99.90;;;;;;5036124;28;20057;-68
2023/03/21 10:59:52;;;;;;;36.63;25.25;;;31.50;99.90;;;;;;5036252;28;20025;-67
2023/03/21 11:02:25;;;;;;;35.63;20.45;;;31.50;99.90;;;;;;5036208;28;20032;-68
2023/03/21 11:04:55;;;;;;;78.13;50.80;;;31.50;99.90;;;;;;5036038;28;20025;-67
2023/03/21 11:07:24;;;;;;;50.03;37.00;;;31.50;99.90;;;;;;5036049;28;20029;-68
2023/03/21 11:09:56;;;;;;;73.38;49.38;;;31.60;99.90;;;;;;5036083;28;20097;-67
2023/03/21 11:12:25;;;;;;;;;;;31.50;99.90;;;;;;5036668;28;20025;-69
2023/03/21 11:14:52;;;;;;;35.70;22.35;;;31.60;99.90;;;;;;5035954;28;19909;-68
2023/03/21 11:17:19;;;;;;;30.83;17.63;;;31.70;99.90;;;;;;5035880;28;20389;-69
2023/03/21 11:20:00;;;;;;;44.70;26.92;;;31.60;99.90;;;;;;5036213;28;20544;-68
2023/03/21 11:22:36;;;;;;;30.55;19.48;;;31.50;99.90;;;;;;5035869;28;20036;-69
2023/03/21 11:25:08;;;;;;;42.58;23.70;;;31.50;99.90;;;;;;5035871;28;20071;-70
2023/03/21 11:27:34;;;;;;;;;;;31.50;99.90;;;;;;5036416;28;20025;-69
2023/03/21 11:30:04;;;;;;;38.67;22.30;;;31.50;99.90;;;;;;5034836;28;20389;-70
2023/03/21 11:32:37;;;;;;;39.85;23.40;;;31.30;99.90;;;;;;5035870;28;20025;-70
2023/03/21 11:35:19;;;;;;;36.17;22.30;;;31.30;99.90;;;;;;5035566;28;20029;-70
2023/03/21 11:37:50;;;;;;;47.53;27.13;;;31.30;99.90;;;;;;5035649;28;20030;-69
2023/03/21 11:40:22;;;;;;;68.88;36.00;;;31.10;99.90;;;;;;5035437;28;20083;-69
2023/03/21 11:42:56;;;;;;;57.92;31.50;;;31.00;99.90;;;;;;5035521;28;20365;-69
2023/03/21 11:45:24;;;;;;;49.30;27.63;;;31.00;99.90;;;;;;5035513;28;20028;-69
2023/03/21 11:47:55;;;;;;;31.67;20.63;;;31.00;99.90;;;;;;5035355;28;20032;-69
2023/03/21 11:50:21;;;;;;;40.97;24.13;;;30.90;99.90;;;;;;5035576;28;20029;-69
2023/03/21 11:52:50;;;;;;;36.47;24.50;;;30.90;99.90;;;;;;5035278;28;20109;-68
2023/03/21 11:55:26;;;;;;;42.70;22.88;;;30.90;99.90;;;;;;5035218;28;20029;-69
2023/03/21 11:57:58;;;;;;;37.28;21.05;;;31.00;99.90;;;;;;5035404;28;20026;-67
2023/03/21 12:00:32;;;;;;;37.78;19.10;;;31.00;99.90;;;;;;5035164;28;20056;-69
2023/03/21 12:03:01;;;;;;;35.55;18.63;;;31.00;99.90;;;;;;5035180;28;20030;-69
2023/03/21 12:05:50;;;;;;;36.75;20.05;;;31.00;99.90;;;;;;5035320;28;20601;-69
2023/03/21 12:08:21;;;;;;;37.35;21.45;;;31.00;99.90;;;;;;5029913;28;20029;-68
2023/03/21 12:10:57;;;;;;;40.55;25.05;;;30.90;99.90;;;;;;5023954;28;20049;-68
2023/03/21 12:13:29;;;;;;;41.00;24.45;;;30.80;99.90;;;;;;5015159;28;20057;-69
2023/03/21 12:16:05;;;;;;;60.10;38.75;;;30.80;99.90;;;;;;5014968;28;20111;-68
2023/03/21 12:18:40;;;;;;;35.78;24.27;;;30.70;99.90;;;;;;5014977;28;20111;-68
2023/03/21 12:21:19;;;;;;;72.30;44.53;;;30.70;99.90;;;;;;5014979;28;20053;-68
2023/03/21 12:23:48;;;;;;;117.78;72.75;;;30.70;99.90;;;;;;5014778;28;20104;-67
2023/03/21 12:26:20;;;;;;;39.17;24.90;;;30.60;99.90;;;;;;5014988;28;20025;-68
2023/03/21 12:29:06;;;;;;;35.83;19.42;;;30.60;99.90;;;;;;5014867;28;20018;-68
2023/03/21 12:31:38;;;;;;;37.55;19.23;;;30.60;99.90;;;;;;5014853;28;20109;-68
2023/03/21 12:34:07;;;;;;;41.43;21.53;;;30.60;99.90;;;;;;5014759;28;20017;-69
2023/03/21 12:36:35;;;;;;;33.10;17.63;;;30.70;99.90;;;;;;5014787;28;20026;-70
2023/03/21 12:39:32;;;;;;;25.42;14.88;;;30.60;99.90;;;;;;5014659;28;20076;-70
2023/03/21 12:42:01;;;;;;;21.73;11.60;;;30.60;99.90;;;;;;4999942;28;20491;-68
2023/03/21 12:44:34;;;;;;;18.75;10.80;;;30.70;99.90;;;;;;5004005;28;20391;-68